map of OSI home
OSI - Airport
Location
City:  Osijek, Croatia
ICAO:LDOS
IATA:OSI

Details
Type:Airport (Aerodrome, Airfield)
Latitude:4527'46"N (45.462667)
Longitude:1848'37"E (18.810156)
Datum:WGS 1984
Elevation:290 ft (88 m)
Variation:4.48E (WMM2015 magnetic declination)
0.11 annual change
Runways:1
Longest:8199 × 148 ft (2499 × 45 m), paved

Time
Time Zone:UTC+1 (DST+2)
Local Time:

Weather
METAR:LDOS 220800Z 30008KT CAVOK M00/M02 Q1016
TAF:LDOS 220525Z 2206/2306 29010KT CAVOK TX05/2213Z TNM02/2302Z
BECMG 2212/2214 VRB02KT
TEMPO 2216/2304 12006KT PROB40
TEMPO 2303/2306 -FZRA

Related Locations
Nearby:
Farthest:CHT: 11680 mi / 18797 km
Waitangi [Tuuta], CIT, NZ

Find:

   beyond  
but within

Other Information
Maps:
NOTAMs:
Links:
Sources:

  
flag of Croatia   

Sectional Chart

Flight Planning
at skyvector.com

Satellite Image

Google Maps Satellite view

 

Copyright © 2004-2018 Karl L. Swartz. All rights reserved.
The Great Circle Mapper name and logo are trademarks of the Great Circle Mapper.
All other trademarks mentioned herein belong to their respective owners.
Please see credits for attibutions and further copyright information.

  Follow gcmap on Facebook Follow gcmap on Twitter Follow gcmap on Google+ GCmap on LinkedIn

hCard Microformat

Geo Microformat